Vanetia, Texas
Current Conditions -  °F | °C
As of 10:15 AM on Thursday 29 Jan 2015 (Local Time) from KLHB Reporting Station
Broken Clouds Broken Clouds  
Wind Chill: 16°   Ceiling: 1300
Heat Index: 16°   Visibility: 10mi
Dew Point: 14°   Wind: 10mph
Humidity: 86%   Direction: 190°S
Pressure: 30.27"   Gusts: NA
Location:  31.2206°N, 96.2362°W
Report Text: KLHB 291615Z AUTO 19009KT 10SM BKN013 16/14 A3027 RMK AO2 T01640140
Loading
Personal Weather Stations






























Interactive Weather Map New forecast layout! Learn more

10-Day Weather Forecast

Advertisements
Track Severe Weather on mobile